WZZ7714 EKCH-LWSK
Flight info
| Callsign | WZZ7714 |
|---|---|
| Flight time | N/A |
| Altitude | 37000 |
| Route | SALLO M44 KOGIM M602 BINKA DCT ROVEK DCT DESEN DCT VALPI DCT XOMBA DCT BABIT DCT RIGMU DCT REDVA UL616 KOGAT |
| Aircraft | A320/M-SDE3FGHIRWY/LB1 |
Departure
| Time | 2026-04-30 15:07 |
|---|---|
| Airport | Copenhagen Kastrup Airport (EKCH) |
Arrival
| Time | N/A |
|---|---|
| Airport | Skopje International Airport (LWSK) |
| Time | Latitude | Longitude | Altitude | Speed | Heading |
|---|---|---|---|---|---|
| 2026-04-30 14:55 | 55.62522 | 12.65576 | 24 ft | 0 kts | 24° |
| 2026-04-30 14:58 | 55.62506 | 12.65564 | 24 ft | 2 kts | 19° |
| 2026-04-30 14:58 | 55.62490 | 12.65554 | 25 ft | 2 kts | 15° |
| 2026-04-30 14:58 | 55.62457 | 12.65547 | 25 ft | 2 kts | 338° |
| 2026-04-30 14:59 | 55.62444 | 12.65580 | 26 ft | 0 kts | 267° |
| 2026-04-30 15:01 | 55.62441 | 12.65350 | 24 ft | 16 kts | 269° |
| 2026-04-30 15:02 | 55.62416 | 12.65207 | 25 ft | 11 kts | 201° |
| 2026-04-30 15:02 | 55.62339 | 12.65204 | 24 ft | 12 kts | 179° |
| 2026-04-30 15:03 | 55.62075 | 12.65023 | 24 ft | 16 kts | 213° |
| 2026-04-30 15:03 | 55.61846 | 12.64759 | 25 ft | 23 kts | 213° |
| 2026-04-30 15:04 | 55.61560 | 12.64430 | 24 ft | 26 kts | 213° |
| 2026-04-30 15:04 | 55.61066 | 12.63861 | 24 ft | 26 kts | 213° |
| 2026-04-30 15:05 | 55.60748 | 12.63677 | 24 ft | 12 kts | 130° |
| 2026-04-30 15:06 | 55.60726 | 12.63946 | 27 ft | 14 kts | 42° |
| 2026-04-30 15:06 | 55.61373 | 12.64943 | 28 ft | 133 kts | 41° |
| 2026-04-30 15:07 | 55.63218 | 12.67792 | 734 ft | 206 kts | 37° |
| 2026-04-30 15:07 | 55.65093 | 12.72294 | 2193 ft | 259 kts | 79° |
| 2026-04-30 15:08 | 55.63551 | 12.78053 | 4389 ft | 282 kts | 143° |
| 2026-04-30 15:08 | 55.58307 | 12.82904 | 7064 ft | 287 kts | 151° |
| 2026-04-30 15:09 | 55.54657 | 12.86003 | 8630 ft | 294 kts | 151° |
| 2026-04-30 15:09 | 55.50929 | 12.89180 | 10179 ft | 301 kts | 150° |
| 2026-04-30 15:10 | 55.46996 | 12.92531 | 11076 ft | 337 kts | 150° |
| 2026-04-30 15:11 | 55.38050 | 13.00087 | 13603 ft | 368 kts | 150° |
| 2026-04-30 15:11 | 55.33381 | 13.04003 | 14806 ft | 374 kts | 149° |
| 2026-04-30 15:12 | 55.26236 | 13.09999 | 16393 ft | 385 kts | 149° |
| 2026-04-30 15:13 | 55.21351 | 13.14067 | 17419 ft | 392 kts | 149° |
| 2026-04-30 15:14 | 55.11320 | 13.22407 | 19426 ft | 406 kts | 150° |
| 2026-04-30 15:14 | 55.03573 | 13.28830 | 20832 ft | 416 kts | 150° |
| 2026-04-30 15:16 | 54.90642 | 13.40832 | 22987 ft | 427 kts | 144° |
| 2026-04-30 15:17 | 54.80270 | 13.51524 | 24539 ft | 439 kts | 145° |
| 2026-04-30 15:18 | 54.66820 | 13.64838 | 26263 ft | 451 kts | 145° |
| 2026-04-30 15:19 | 54.58599 | 13.72974 | 27276 ft | 457 kts | 145° |